Torres de la Alameda, Spain
Current Conditions -  °F | °C
As of 5:00 AM on Monday 26 Jan 2015 (Local Time) from LETO Reporting Station
Clear Clear  
Wind Chill: 28°   Ceiling: Unl
Heat Index: 28°   Visibility: 6mi
Dew Point: 25°   Wind: 3mph
Humidity: 86%   Direction: 10°N
Pressure: 30.3"   Gusts: NA
Location:  40.4°N, 3.36°W
Report Text: LETO 260400Z 01003KT CAVOK M02/M04 Q1026 NOSIG
Loading
Personal Weather Stations






























Interactive Weather Map New forecast layout! Learn more

10-Day Weather Forecast

Advertisements
Track Severe Weather on mobile